Latest Weather Observations for East Sale

IDV60801

Issued at 1:35 pm EST Friday 1 August 2014 (issued every 30 minutes, with the page automatically refreshed every 10 minutes)

About weather observations | Map of weather stations | Latest weather observations for VIC | Other Formats
Station Details ID: 085072 Name: EAST SALE AIRPORT Lat: -38.12 Lon: 147.13 Height: 4.6 m
Data from the previous 72 hours. | See also: Recent months at East Sale
Date/Time
EST
Temp
°C
App
Temp
°C
Dew
Point
Rel
Hum
%
Delta-T
°C
Wind Press
QNH
hPa
Press
MSL
hPa
Rain
since 9 am
mm
Dir
 
Spd
km/h
Gust
km/h
Spd
kts
Gust
kts
01/01:30pm 11.8 1.2 -1.6 39 5.3 WNW 44 59 24 32 1003.4 - 0.0
01/01:06pm 11.6 0.2 -2.0 38 5.3 WNW 48 72 26 39 1003.1 - 0.0
01/01:00pm 11.7 1.0 -2.6 37 5.5 WNW 44 59 24 32 1003.1 - 0.0
01/12:43pm 11.3 1.2 -2.1 39 5.2 WNW 41 61 22 33 1003.0 - 0.0
01/12:30pm 11.6 1.7 -1.2 41 5.1 WNW 41 52 22 28 1002.9 - 0.0
01/12:00pm 11.3 -0.3 -1.0 42 4.9 WNW 50 69 27 37 1002.4 1002.5 0.0
01/11:40am 10.9 -1.2 -1.7 41 4.9 WNW 52 70 28 38 1001.9 - 0.0
01/11:30am 11.0 -1.1 -1.5 42 4.9 NW 52 69 28 37 1002.1 - 0.0
01/11:00am 10.9 -0.7 -0.9 44 4.7 NW 50 65 27 35 1002.2 - 0.0
01/10:30am 10.4 0.3 0.3 49 4.1 NW 43 54 23 29 1002.5 - 0.0
01/10:00am 10.3 1.6 -0.2 48 4.2 NW 35 48 19 26 1002.7 - 0.0
01/09:30am 9.8 1.0 -0.9 47 4.2 NW 35 48 19 26 1002.4 - 0.0
01/09:00am 9.0 -0.5 -0.4 52 3.7 NW 39 56 21 30 1001.7 1001.7 5.6
01/08:55am 8.8 -0.7 -0.7 51 3.7 NW 39 56 21 30 1001.5 - 5.6
01/08:30am 7.9 1.3 -0.6 55 3.3 NW 24 35 13 19 1001.7 - 5.6
01/08:00am 7.2 0.5 -1.3 55 3.2 NW 24 30 13 16 1001.8 - 5.6
01/07:30am 6.6 -1.3 -1.4 56 3.0 NW 30 41 16 22 1001.5 - 5.6
01/07:00am 6.2 -0.6 -1.6 57 2.9 NW 24 32 13 17 1001.2 - 5.6
01/06:30am 5.9 0.1 -1.4 59 2.7 NNW 19 26 10 14 1001.1 - 5.6
01/06:00am 6.4 -0.4 -1.7 56 3.0 NW 24 37 13 20 1001.2 1001.2 5.6
01/05:30am 6.4 -1.1 -1.4 57 2.9 NW 28 37 15 20 1001.0 - 5.6
01/05:00am 6.0 -0.8 -1.6 58 2.8 NW 24 28 13 15 1001.1 - 5.6
01/04:30am 5.0 -0.4 -1.2 64 2.3 NW 17 22 9 12 1001.3 - 5.6
01/04:00am 5.5 1.6 -1.2 62 2.5 WNW 9 13 5 7 1001.8 - 5.6
01/03:30am 5.7 -1.6 0.3 68 2.1 NW 28 35 15 19 1001.4 - 5.6
01/03:00am 5.9 -0.6 0.2 67 2.2 NW 24 28 13 15 1001.3 1001.3 5.6
01/02:30am 5.8 -0.3 0.7 70 2.0 NW 22 26 12 14 1001.3 - 5.6
01/02:00am 6.7 0.6 0.3 63 2.5 NW 22 28 12 15 1001.4 - 5.6
01/01:30am 6.5 1.8 0.9 67 2.2 NW 15 19 8 10 1001.8 - 5.6
01/01:00am 6.9 2.6 1.1 66 2.3 NW 13 17 7 9 1001.6 - 5.6
01/12:30am 7.3 2.7 1.6 67 2.3 WNW 15 19 8 10 1001.6 - 5.6
01/12:00am 7.4 3.7 2.3 70 2.1 WNW 11 15 6 8 1001.2 1001.3 5.6
 
Date/Time
EST
Temp
°C
App
Temp
°C
Dew
Point
Rel
Hum
%
Delta-T
°C
Wind Press
QNH
hPa
Press
MSL
hPa
Rain
since 9 am
mm
Dir
 
Spd
km/h
Gust
km/h
Spd
kts
Gust
kts
31/11:30pm 7.4 2.9 2.3 70 2.1 NW 15 17 8 9 1001.3 - 5.6
31/11:00pm 8.0 0.2 1.9 65 2.5 WNW 32 41 17 22 1001.2 - 5.6
31/10:30pm 7.2 0.3 2.4 71 2.0 W 28 41 15 22 1001.3 - 5.6
31/10:00pm 6.5 -0.3 3.2 79 1.4 WNW 28 41 15 22 1001.6 - 5.6
31/09:30pm 6.1 -0.6 3.5 83 1.1 W 28 37 15 20 1001.9 - 5.4
31/09:00pm 5.7 -0.9 4.0 89 0.7 W 28 44 15 24 1001.0 1001.1 5.0
31/08:58pm 5.7 -0.9 4.0 89 0.7 W 28 44 15 24 1001.0 - 5.0
31/08:30pm 5.7 -1.7 4.0 89 0.7 W 32 44 17 24 1000.6 - 4.4
31/08:00pm 6.0 -3.1 4.1 88 0.8 WSW 41 61 22 33 999.4 - 2.8
31/07:40pm 6.2 -3.3 4.1 86 0.9 WSW 43 65 23 35 999.1 - 1.6
31/07:30pm 6.3 -3.1 4.7 89 0.7 WSW 43 74 23 40 998.6 - 1.2
31/07:00pm 6.7 -3.6 4.6 86 0.9 WSW 48 69 26 37 998.3 - 0.6
31/06:30pm 7.2 -2.7 4.9 85 1.0 WSW 46 69 25 37 997.5 - 0.4
31/06:04pm 8.2 -1.6 5.1 81 1.4 WSW 46 80 25 43 997.0 - 0.0
31/06:01pm 8.3 -1.0 5.2 81 1.4 WSW 43 61 23 33 996.9 - 0.0
31/06:00pm 8.3 -1.0 5.2 81 1.4 WSW 43 59 23 32 996.9 997.0 0.0
31/05:30pm 10.1 -1.6 5.3 72 2.2 WSW 56 78 30 42 996.6 - 0.0
31/05:00pm 12.9 1.4 6.1 63 3.2 W 56 78 30 42 994.7 - 0.0
31/04:54pm 13.6 1.9 6.0 60 3.6 W 57 78 31 42 994.2 - 0.0
31/04:51pm 13.9 0.7 6.2 59 3.7 W 65 78 35 42 994.0 - 0.0
31/04:49pm 14.7 2.8 5.4 53 4.4 NW 57 78 31 42 993.2 - 0.0
31/04:30pm 18.8 5.9 -0.7 27 8.4 NW 57 82 31 44 992.6 - 0.0
31/04:00pm 18.7 4.4 0.3 29 8.1 NW 65 87 35 47 992.3 - 0.0
31/03:30pm 19.1 5.1 -0.1 27 8.4 NW 63 91 34 49 992.5 - 0.0
31/03:16pm 19.0 3.1 0.8 29 8.1 NW 74 96 40 52 992.4 - 0.0
31/03:13pm 19.3 1.4 -0.9 25 8.7 NW 83 96 45 52 992.1 - 0.0
31/03:00pm 19.2 5.2 -0.3 27 8.6 NW 63 98 34 53 992.5 992.5 0.0
31/02:30pm 19.2 8.8 19.0 99 0.1 NW 72 95 39 51 992.6 - 0.0
31/02:00pm - - - - - NW 74 102 40 55 - - -
31/01:30pm - - - - - NW 74 98 40 53 - - -
31/01:00pm 19.6 9.8 19.6 100 0.0 NW 70 91 38 49 994.2 - 0.0
31/12:32pm - - - - - NW 72 102 39 55 - - -
31/12:30pm 19.6 9.4 19.6 100 0.0 NW 72 85 39 46 994.9 - 0.0
31/12:00pm 19.5 7.9 1.4 30 8.3 NW 52 74 28 40 996.2 996.2 0.0
31/11:30am 19.2 4.7 1.5 30 8.0 NW 67 91 36 49 996.5 - 0.0
31/11:10am 19.1 5.6 3.0 34 7.5 NW 63 102 34 55 997.1 - 0.0
31/11:00am 19.1 7.1 3.6 35 7.3 NW 56 78 30 42 997.6 - 0.0
31/10:35am 18.8 7.2 3.7 36 7.1 NW 54 72 29 39 998.6 - 0.0
31/10:30am 18.7 6.5 3.6 36 7.1 NW 57 74 31 40 998.6 - 0.0
31/10:00am 18.5 6.5 3.6 37 7.0 NW 56 80 30 43 999.2 - 0.0
31/09:30am 18.1 6.1 3.8 38 6.7 NW 56 82 30 44 999.8 - 0.0
31/09:06am 17.9 7.3 3.2 37 6.8 NW 48 69 26 37 1000.0 - 0.0
31/09:00am 17.8 7.3 3.7 39 6.6 NW 48 61 26 33 1000.0 1000.0 0.0
31/08:37am 17.4 6.5 3.7 40 6.4 NW 50 69 27 37 1000.5 - 0.0
31/08:30am 17.3 6.0 3.5 39 6.4 NW 52 69 28 37 1000.5 - 0.0
31/08:00am 16.9 5.9 3.2 40 6.3 NW 50 69 27 37 1000.8 - 0.0
31/07:30am 16.2 6.0 3.3 42 5.9 NW 46 67 25 36 1001.1 - 0.0
31/07:23am 15.8 6.6 3.6 44 5.6 NW 41 67 22 36 1001.4 - 0.0
31/07:21am 15.8 6.6 3.6 44 5.6 NW 41 67 22 36 1001.4 - 0.0
31/07:00am 15.9 6.7 3.5 43 5.7 NW 41 50 22 27 1001.8 - 0.0
31/06:30am 15.1 7.6 3.7 46 5.2 NW 32 41 17 22 1002.5 - 0.0
31/06:00am 15.8 6.9 3.0 42 5.8 NW 39 52 21 28 1002.9 1002.9 0.0
31/05:30am 15.8 7.6 2.7 41 5.9 NW 35 54 19 29 1003.0 - 0.0
31/05:00am 15.6 7.6 3.6 44 5.5 NW 35 56 19 30 1003.4 - 0.0
31/04:43am 15.9 7.4 3.2 42 5.8 NW 37 56 20 30 1003.5 - 0.0
31/04:30am 16.1 8.4 3.2 42 5.9 NW 33 46 18 25 1003.6 - 0.0
31/04:00am 14.8 7.5 4.5 50 4.8 NW 32 43 17 23 1003.9 - 0.0
31/03:30am 13.9 9.1 5.6 57 3.9 NW 20 28 11 15 1004.4 - 0.0
31/03:00am 14.3 10.9 5.9 57 4.0 NW 13 20 7 11 1005.2 1005.2 0.0
31/02:30am 15.1 11.6 5.4 52 4.6 NNW 13 17 7 9 1005.9 - 0.0
31/02:00am 14.4 11.0 6.0 57 4.0 NNW 13 15 7 8 1006.4 - 0.0
31/01:30am 14.4 11.0 6.0 57 4.0 NW 13 17 7 9 1006.9 - 0.0
31/01:00am 14.5 10.7 5.7 55 4.2 NW 15 17 8 9 1007.4 - 0.0
31/12:30am 14.6 10.0 5.5 54 4.3 NW 19 24 10 13 1007.7 - 0.0
31/12:00am 15.6 10.5 4.2 46 5.3 NW 20 28 11 15 1007.7 1007.7 0.0
 
Date/Time
EST
Temp
°C
App
Temp
°C
Dew
Point
Rel
Hum
%
Delta-T
°C
Wind Press
QNH
hPa
Press
MSL
hPa
Rain
since 9 am
mm
Dir
 
Spd
km/h
Gust
km/h
Spd
kts
Gust
kts
30/11:30pm 15.7 10.8 4.3 46 5.3 NW 19 28 10 15 1007.8 - 0.0
30/11:00pm 15.9 11.2 5.2 49 5.1 NNW 19 26 10 14 1008.0 - 0.0
30/10:30pm 14.3 10.7 6.9 61 3.6 NNW 15 19 8 10 1008.4 - 0.0
30/10:00pm 14.2 10.7 7.3 63 3.4 N 15 17 8 9 1008.5 - 0.0
30/09:30pm 13.5 10.4 7.4 66 3.0 N 13 15 7 8 1008.3 - 0.0
30/09:00pm 13.1 10.0 7.3 68 2.8 NW 13 15 7 8 1008.3 1008.3 0.0
30/08:30pm 14.7 11.2 7.4 61 3.6 N 15 17 8 9 1008.3 - 0.0
30/08:00pm 14.7 10.4 6.9 59 3.8 N 19 20 10 11 1008.8 - 0.0
30/07:30pm 14.3 10.4 6.9 61 3.6 N 17 20 9 11 1009.1 - 0.0
30/07:00pm 15.0 10.7 6.8 58 4.0 N 19 20 10 11 1008.8 - 0.0
30/06:30pm 14.7 10.5 7.4 61 3.6 N 19 24 10 13 1009.0 - 0.0
30/06:00pm 14.3 10.1 8.1 66 3.1 N 20 26 11 14 1009.0 1009.0 0.0
30/05:30pm 15.3 10.8 8.6 64 3.4 NNW 22 28 12 15 1008.7 - 0.0
30/05:00pm 16.2 11.3 8.6 60 3.9 NNW 24 32 13 17 1008.6 - 0.0
30/04:30pm 17.1 11.1 8.5 57 4.4 NW 30 37 16 20 1008.4 - 0.0
30/04:00pm 17.8 11.7 8.2 53 4.9 NW 30 39 16 21 1008.0 - 0.0
30/03:30pm 18.0 11.5 8.0 52 5.1 NW 32 41 17 22 1008.2 - 0.0
30/03:00pm 18.7 12.1 7.7 48 5.6 NW 32 43 17 23 1008.3 1008.3 0.0
30/02:30pm 19.3 12.8 8.3 49 5.7 NW 32 41 17 22 1008.4 - 0.0
30/02:00pm 19.1 11.9 7.5 47 5.9 NW 35 46 19 25 1008.6 - 0.0
30/01:30pm 19.0 12.1 7.4 47 5.9 WNW 33 43 18 23 1008.9 - 0.0
30/01:05pm 18.5 10.4 6.9 46 5.8 WNW 39 57 21 31 1009.5 - 0.0
30/01:00pm 18.3 9.4 6.9 47 5.7 WNW 43 57 23 31 1009.5 - 0.0
30/12:30pm 19.4 10.7 7.7 46 6.0 NW 43 56 23 30 1009.5 - 0.0
30/12:00pm 18.0 9.5 7.0 48 5.5 NW 41 56 22 30 1010.2 1010.0 0.0
30/11:55am 18.0 9.2 7.3 49 5.4 WNW 43 56 23 30 1010.2 - 0.0
30/11:30am 17.4 12.3 7.7 53 4.9 W 24 32 13 17 1010.9 - 0.0
30/11:00am 17.4 12.8 8.2 54 4.7 W 22 30 12 16 1011.0 - 0.0
30/10:30am 16.8 12.5 9.3 61 3.9 W 22 26 12 14 1011.1 - 0.0
30/10:00am 16.3 11.5 8.7 60 3.9 WNW 24 30 13 16 1011.0 - 0.0
30/09:30am 14.5 10.2 9.4 71 2.6 WNW 22 26 12 14 1010.8 - 0.0
30/09:00am 13.3 9.0 9.4 77 2.0 W 22 28 12 15 1011.0 1011.0 0.0
30/08:30am 12.6 9.2 9.0 79 1.8 WNW 17 20 9 11 1011.2 - 0.0
30/08:00am 12.1 7.7 8.9 81 1.6 W 22 30 12 16 1010.7 - 0.0
30/07:30am 12.1 5.6 8.9 81 1.6 W 33 46 18 25 1010.6 - 0.0
30/07:04am 12.7 6.0 9.8 82 1.5 WSW 35 43 19 23 1010.9 - 0.0
30/07:00am 13.3 10.7 9.4 77 2.0 NW 13 19 7 10 1011.0 - 0.0
30/06:30am 12.7 11.3 9.6 81 1.6 N 7 11 4 6 1010.4 - 0.0
30/06:00am 12.5 10.8 10.0 85 1.3 NW 9 11 5 6 1010.2 1010.3 0.0
30/05:30am 12.5 9.4 10.2 86 1.2 WSW 17 20 9 11 1009.9 - 0.0
30/05:00am 11.9 9.1 9.9 87 1.0 W 15 20 8 11 1009.8 - 0.0
30/04:30am 12.9 8.1 10.2 84 1.4 WSW 26 33 14 18 1009.5 - 0.0
30/04:00am 12.7 9.5 10.0 84 1.4 W 17 22 9 12 1009.4 - 0.0
30/03:30am 13.2 9.0 9.7 79 1.8 W 22 32 12 17 1009.1 - 0.0
30/03:00am 14.0 8.6 9.5 74 2.3 WSW 28 43 15 23 1009.1 1009.1 0.0
30/02:30am 14.1 9.4 9.2 72 2.5 WSW 24 35 13 19 1009.5 - 0.0
30/02:00am 15.7 11.0 7.9 59 3.9 W 22 33 12 18 1008.8 - 0.0
30/01:30am 15.6 9.4 7.8 59 3.9 W 30 35 16 19 1008.6 - 0.0
30/01:00am 15.7 10.2 7.7 59 4.0 WNW 26 32 14 17 1008.6 - 0.0
30/12:30am 15.7 10.2 7.7 59 4.0 WNW 26 33 14 18 1008.3 - 0.0
30/12:00am 15.3 11.0 7.9 61 3.7 WNW 20 28 11 15 1008.3 1008.4 0.0
 
Date/Time
EST
Temp
°C
App
Temp
°C
Dew
Point
Rel
Hum
%
Delta-T
°C
Wind Press
QNH
hPa
Press
MSL
hPa
Rain
since 9 am
mm
Dir
 
Spd
km/h
Gust
km/h
Spd
kts
Gust
kts
29/11:30pm 15.0 11.3 8.0 63 3.5 NW 17 20 9 11 1008.2 - 0.0
29/11:00pm 14.6 10.8 7.5 62 3.5 NW 17 20 9 11 1008.2 - 0.0
29/10:30pm 14.6 10.2 7.5 62 3.5 NW 20 26 11 14 1007.8 - 0.0
29/10:00pm 14.5 10.3 7.4 62 3.5 NW 19 24 10 13 1007.7 - 0.0
29/09:30pm 15.0 9.8 7.3 60 3.8 NW 24 37 13 20 1007.4 - 0.0
29/09:00pm 15.7 8.0 7.0 56 4.3 WNW 37 52 20 28 1006.9 1007.0 0.0
29/08:30pm 16.1 7.5 6.5 53 4.7 WNW 41 52 22 28 1007.2 - 0.0
29/08:00pm 15.9 7.7 6.5 53 4.6 WNW 39 52 21 28 1007.0 - 0.0
29/07:30pm 14.9 7.4 6.4 57 4.1 NW 35 48 19 26 1006.6 - 0.0
29/07:00pm 15.4 7.1 6.1 54 4.5 NW 39 50 21 27 1006.0 - 0.0
29/06:38pm 15.3 6.2 5.9 53 4.5 NW 43 61 23 33 1006.0 - 0.0
29/06:30pm 15.1 6.1 6.2 55 4.3 WNW 43 56 23 30 1005.9 - 0.0
29/06:00pm 15.3 6.6 5.9 53 4.5 NW 41 61 22 33 1005.4 1005.5 0.0
29/05:54pm 15.5 7.1 5.7 52 4.7 NW 39 57 21 31 1005.4 - 0.0
29/05:30pm 15.3 7.7 5.9 53 4.5 NW 35 46 19 25 1005.1 - 0.0
29/05:00pm 15.8 7.4 5.6 50 4.9 NW 39 54 21 29 1005.0 - 0.0
29/04:30pm 15.8 7.9 6.1 52 4.7 NW 37 50 20 27 1004.9 - 0.0
29/04:00pm 16.0 7.7 6.1 52 4.8 WNW 39 56 21 30 1005.0 - 0.0
29/03:55pm 16.1 8.2 6.0 51 4.9 WNW 37 56 20 30 1005.0 - 0.0
29/03:30pm 16.1 9.1 6.0 51 4.9 NW 32 43 17 23 1005.1 - 0.0
29/03:00pm 16.0 9.8 6.1 52 4.8 NW 28 39 15 21 1005.2 1005.2 0.0
29/02:30pm 16.7 10.7 5.2 46 5.5 NW 26 39 14 21 1005.0 - 0.0
29/02:00pm 16.6 10.8 6.1 50 5.1 NW 26 43 14 23 1005.5 - 0.0

Other Formats:

Comma delimited format used in spreadsheet applications
http://www.bom.gov.au/fwo/IDV60801/IDV60801.94907.axf

JavaScript Object Notation format (JSON) in row-major order
http://www.bom.gov.au/fwo/IDV60801/IDV60801.94907.json